< < Back
Terminal Aerodrome Forecast


Current Version              Previous Versions:   1  2  3  4  5  6  7  8  9  

Terminal Aerodrome Forecast

737
FTUS44 KBMX 281141
TAFANB
TAF
KANB 281141Z 2812/2912 30006KT P6SM FEW100
     FM290100 00000KT P6SM SKC=



Latest METAR

640
SAUS70 KWBC 290100 RRE
MTRANB
METAR KANB 290053Z AUTO 34003KT 10SM BKN100 BKN120 08/M09 A3024 RMK AO2
SLP248 T00831094


USA.gov is the U.S. government's official web portal to all federal, state and local government web resources and services.